createdAt,value
2022-08-03T00:02:08.161Z,26.47
2022-08-03T00:04:45.573Z,27.83
2022-08-03T00:07:27.221Z,28.23
2022-08-03T00:09:58.015Z,28.87
2022-08-03T00:12:52.166Z,30.10
2022-08-03T00:15:21.153Z,29.63
2022-08-03T00:17:52.107Z,29.80
2022-08-03T00:20:29.391Z,33.27
2022-08-03T00:22:58.929Z,33.17
2022-08-03T00:25:36.188Z,33.90
2022-08-03T00:28:19.798Z,34.57
2022-08-03T00:31:30.958Z,34.17
2022-08-03T00:34:08.762Z,36.90
2022-08-03T00:36:49.081Z,36.83
2022-08-03T00:39:36.151Z,38.10
2022-08-03T00:42:19.222Z,40.60
2022-08-03T00:44:54.544Z,40.53
2022-08-03T00:47:23.983Z,42.77
2022-08-03T00:50:06.937Z,41.80
2022-08-03T00:52:42.699Z,42.60
2022-08-03T00:55:17.250Z,38.77
2022-08-03T00:58:12.091Z,41.87
2022-08-03T01:00:59.653Z,42.47
2022-08-03T01:03:33.919Z,43.60
2022-08-03T01:06:20.273Z,43.10
2022-08-03T01:08:53.813Z,43.53
2022-08-03T01:11:32.684Z,44.10
2022-08-03T01:14:18.682Z,46.53
2022-08-03T01:16:58.228Z,46.53
2022-08-03T01:19:50.038Z,45.90
2022-08-03T01:22:37.600Z,47.47
2022-08-03T01:25:36.467Z,48.97
2022-08-03T01:28:27.237Z,48.63
2022-08-03T01:31:28.685Z,49.30
2022-08-03T01:34:14.669Z,51.20
2022-08-03T01:36:54.016Z,51.83
2022-08-03T01:39:26.542Z,52.10
2022-08-03T01:42:15.318Z,53.33
2022-08-03T01:45:14.601Z,54.63
2022-08-03T01:48:03.014Z,57.30
2022-08-03T01:50:39.590Z,57.37
2022-08-03T01:53:42.914Z,58.43
2022-08-03T01:56:13.126Z,58.77
2022-08-03T01:58:47.040Z,59.60
2022-08-03T02:01:25.300Z,60.03
2022-08-03T02:04:18.757Z,57.73
2022-08-03T02:07:00.815Z,58.00
2022-08-03T02:09:40.199Z,58.47
2022-08-03T02:12:16.242Z,58.40
2022-08-03T02:15:17.983Z,60.33
2022-08-03T02:17:49.702Z,57.77
2022-08-03T02:20:22.429Z,57.90
2022-08-03T02:22:55.012Z,59.30
2022-08-03T02:25:29.512Z,58.63
2022-08-03T02:28:03.059Z,59.17
2022-08-03T02:30:42.047Z,57.87
2022-08-03T02:33:19.254Z,57.57
2022-08-03T02:36:07.467Z,58.83
2022-08-03T02:38:41.351Z,59.60
2022-08-03T02:41:39.230Z,57.70
2022-08-03T02:44:27.959Z,60.07
2022-08-03T02:47:21.469Z,59.97
2022-08-03T02:49:58.694Z,62.40
2022-08-03T02:52:39.710Z,63.37
2022-08-03T02:55:30.855Z,65.37
2022-08-03T02:58:56.665Z,67.17
2022-08-03T03:01:29.485Z,66.30
2022-08-03T03:04:02.262Z,67.10
2022-08-03T03:06:42.125Z,67.87
2022-08-03T03:09:20.229Z,69.87
2022-08-03T03:11:56.154Z,66.97
2022-08-03T03:14:33.867Z,64.90
2022-08-03T03:17:18.111Z,68.10
2022-08-03T03:19:51.300Z,66.40
2022-08-03T03:22:25.399Z,67.20
2022-08-03T03:25:04.602Z,64.97
2022-08-03T03:27:42.551Z,64.40
2022-08-03T03:30:36.844Z,59.27
2022-08-03T03:33:17.010Z,58.40
2022-08-03T03:35:54.738Z,62.33
2022-08-03T03:38:41.219Z,62.50
2022-08-03T03:41:11.586Z,61.47
2022-08-03T03:43:43.184Z,63.47
2022-08-03T03:46:14.471Z,65.60
2022-08-03T03:48:45.423Z,66.20
2022-08-03T03:51:14.009Z,64.87
2022-08-03T03:54:00.285Z,66.70
2022-08-03T03:56:30.469Z,67.77
2022-08-03T03:59:24.109Z,66.73
2022-08-03T04:02:16.584Z,67.40
2022-08-03T04:05:04.619Z,68.47
2022-08-03T04:08:17.441Z,69.50
2022-08-03T04:11:01.078Z,69.47
2022-08-03T04:13:37.757Z,68.73
2022-08-03T04:16:10.058Z,72.70
2022-08-03T04:18:40.260Z,70.80
2022-08-03T04:21:13.833Z,69.33
2022-08-03T04:23:49.606Z,72.10
2022-08-03T04:26:30.030Z,72.17
2022-08-03T04:29:14.728Z,70.07
2022-08-03T04:31:47.998Z,70.73
2022-08-03T04:34:23.828Z,68.00
2022-08-03T04:37:27.793Z,69.70
2022-08-03T04:40:01.098Z,69.63
2022-08-03T04:42:33.188Z,71.70
2022-08-03T04:45:13.055Z,70.07
2022-08-03T04:47:50.213Z,71.30
2022-08-03T04:50:24.815Z,70.13
2022-08-03T04:52:53.076Z,67.10
2022-08-03T04:55:33.411Z,68.87
2022-08-03T04:58:19.085Z,68.97
2022-08-03T05:00:51.397Z,66.93
2022-08-03T05:03:25.571Z,65.70
2022-08-03T05:06:11.200Z,66.40
2022-08-03T05:08:56.343Z,63.57
2022-08-03T05:11:35.064Z,63.67
2022-08-03T05:14:28.333Z,63.00
2022-08-03T05:17:22.950Z,64.27
2022-08-03T05:20:00.254Z,65.47
2022-08-03T05:22:42.911Z,91.00
2022-08-03T05:25:27.104Z,67.93
2022-08-03T05:27:57.914Z,69.90
2022-08-03T05:30:41.317Z,66.03
2022-08-03T05:33:24.138Z,68.50
2022-08-03T05:36:01.895Z,65.67
2022-08-03T05:38:34.896Z,62.97
2022-08-03T05:41:21.290Z,61.60
2022-08-03T05:43:56.670Z,58.43
2022-08-03T05:46:31.359Z,56.53
2022-08-03T05:49:05.183Z,52.37
2022-08-03T05:51:41.790Z,50.80
2022-08-03T05:54:10.168Z,50.20
2022-08-03T05:56:38.570Z,45.50
2022-08-03T05:59:37.483Z,42.70
2022-08-03T06:02:08.719Z,41.10
2022-08-03T06:04:54.205Z,36.73
2022-08-03T06:07:33.269Z,35.40
2022-08-03T06:10:36.328Z,30.53
2022-08-03T06:13:00.175Z,29.20
2022-08-03T06:15:38.551Z,26.60
2022-08-03T06:18:13.052Z,25.60
2022-08-03T06:20:47.223Z,25.10
2022-08-03T06:23:53.947Z,23.93
2022-08-03T06:26:22.814Z,22.63
2022-08-03T06:28:58.633Z,22.50
2022-08-03T06:31:33.239Z,21.30
2022-08-03T06:34:33.028Z,20.87
2022-08-03T06:37:02.004Z,21.20
2022-08-03T06:39:36.774Z,20.00
2022-08-03T06:42:14.381Z,20.53
2022-08-03T06:44:50.519Z,20.00
2022-08-03T06:47:26.867Z,19.20
2022-08-03T06:50:16.151Z,19.33
2022-08-03T06:52:55.751Z,19.60
2022-08-03T06:55:42.291Z,20.17
2022-08-03T06:58:11.016Z,19.53
2022-08-03T07:00:39.486Z,20.10
2022-08-03T07:03:08.039Z,19.30
2022-08-03T07:05:37.704Z,19.30
2022-08-03T07:08:33.218Z,19.57
2022-08-03T07:11:02.776Z,19.60
2022-08-03T07:13:38.919Z,19.10
2022-08-03T07:16:07.668Z,20.20
2022-08-03T07:18:50.267Z,20.10
2022-08-03T07:21:20.583Z,19.37
2022-08-03T07:23:59.374Z,19.00
2022-08-03T07:26:41.782Z,19.13
2022-08-03T07:29:11.502Z,19.70
2022-08-03T07:32:19.329Z,20.00
2022-08-03T07:35:08.717Z,19.73
2022-08-03T07:37:37.515Z,19.77
2022-08-03T07:40:17.860Z,21.43
2022-08-03T07:43:19.366Z,20.83
2022-08-03T07:45:51.997Z,21.70
2022-08-03T07:48:33.702Z,20.70
2022-08-03T07:51:03.530Z,20.37
2022-08-03T07:53:47.817Z,21.23
2022-08-03T07:56:17.735Z,20.23
2022-08-03T07:58:55.872Z,20.80
2022-08-03T08:01:26.625Z,19.97
2022-08-03T08:04:04.276Z,19.53
2022-08-03T08:06:44.547Z,20.37
2022-08-03T08:09:49.747Z,19.67
2022-08-03T08:12:48.785Z,20.53
2022-08-03T08:15:19.291Z,20.63
2022-08-03T08:17:55.653Z,23.67
2022-08-03T08:20:45.996Z,19.43
2022-08-03T08:23:25.492Z,19.13
2022-08-03T08:26:12.186Z,19.33
2022-08-03T08:28:52.932Z,19.77
2022-08-03T08:31:21.476Z,20.43
2022-08-03T08:34:06.162Z,18.83
2022-08-03T08:36:41.875Z,21.93
2022-08-03T08:39:24.132Z,20.07
2022-08-03T08:41:56.737Z,19.30
2022-08-03T08:44:44.591Z,20.10
2022-08-03T08:47:23.461Z,21.93
2022-08-03T08:50:09.176Z,20.27
2022-08-03T08:52:57.320Z,19.80
2022-08-03T08:55:58.288Z,20.17
2022-08-03T08:59:47.735Z,19.57
2022-08-03T09:03:29.966Z,19.83
2022-08-03T09:06:25.589Z,20.77
2022-08-03T09:09:01.559Z,23.00
2022-08-03T09:11:54.534Z,19.43
2022-08-03T09:14:36.782Z,19.27
2022-08-03T09:17:17.028Z,19.30
2022-08-03T09:20:07.478Z,27.13
2022-08-03T09:23:59.059Z,19.70
2022-08-03T09:26:28.289Z,21.00
2022-08-03T09:29:23.949Z,20.80
2022-08-03T09:32:03.639Z,20.33
2022-08-03T09:34:45.043Z,20.40
2022-08-03T09:38:12.775Z,19.30
2022-08-03T09:40:36.277Z,19.60
2022-08-03T09:43:46.887Z,20.73
2022-08-03T09:46:28.675Z,19.60
2022-08-03T09:49:11.962Z,18.80
2022-08-03T09:52:33.144Z,19.73
2022-08-03T09:54:38.577Z,20.97
2022-08-03T09:57:06.833Z,18.73
2022-08-03T09:59:45.821Z,20.20
2022-08-03T10:02:33.645Z,18.90
2022-08-03T10:05:19.752Z,19.93
2022-08-03T10:07:51.027Z,18.60
2022-08-03T10:10:30.803Z,19.43
2022-08-03T10:13:13.056Z,19.73
2022-08-03T10:16:23.291Z,18.57
2022-08-03T10:18:37.189Z,18.70
2022-08-03T10:21:21.637Z,18.63
2022-08-03T10:23:57.857Z,18.33
2022-08-03T10:26:34.900Z,18.43
2022-08-03T10:29:13.004Z,18.50
2022-08-03T10:31:54.492Z,18.03
2022-08-03T10:34:30.394Z,20.93
2022-08-03T10:37:19.357Z,19.10
2022-08-03T10:39:56.356Z,18.10
2022-08-03T10:42:27.512Z,18.30
2022-08-03T10:45:05.315Z,25.03
2022-08-03T10:47:55.611Z,18.03
2022-08-03T10:50:49.849Z,17.87
2022-08-03T10:53:37.253Z,19.70
2022-08-03T10:57:13.673Z,18.23
2022-08-03T11:00:04.898Z,18.13
2022-08-03T11:03:14.174Z,17.93
2022-08-03T11:05:46.329Z,18.60
2022-08-03T11:08:37.705Z,18.40
2022-08-03T11:11:28.696Z,18.10
2022-08-03T11:14:14.139Z,18.30
2022-08-03T11:17:14.461Z,18.43
2022-08-03T11:20:00.316Z,18.87
2022-08-03T11:25:55.245Z,17.87
2022-08-03T11:28:30.621Z,19.10
2022-08-03T11:32:00.178Z,17.97
2022-08-03T11:34:28.942Z,18.80
2022-08-03T11:37:33.010Z,18.93
2022-08-03T11:40:37.249Z,18.27
2022-08-03T11:43:08.099Z,18.80
2022-08-03T11:45:37.873Z,18.30
2022-08-03T11:48:18.682Z,19.20
2022-08-03T11:53:41.980Z,20.57
2022-08-03T11:56:25.001Z,25.70
2022-08-03T11:59:20.423Z,19.17
2022-08-03T12:02:19.132Z,19.57
2022-08-03T12:04:53.670Z,19.10
2022-08-03T12:07:25.032Z,18.90
2022-08-03T12:10:30.488Z,19.73
2022-08-03T12:13:02.705Z,18.47
2022-08-03T12:15:51.498Z,18.80
2022-08-03T12:18:42.379Z,19.20
2022-08-03T12:21:12.103Z,23.80
2022-08-03T12:23:41.079Z,18.03
2022-08-03T12:26:44.955Z,17.83
2022-08-03T12:29:28.706Z,21.90
2022-08-03T12:31:58.325Z,21.30
2022-08-03T12:34:48.739Z,19.33
2022-08-03T12:37:34.556Z,18.17
2022-08-03T12:40:13.238Z,18.60
2022-08-03T12:42:44.362Z,18.37
2022-08-03T12:45:27.453Z,18.37
2022-08-03T12:48:18.397Z,18.23
2022-08-03T12:50:53.615Z,18.70
2022-08-03T12:53:33.952Z,20.03
2022-08-03T12:56:13.244Z,18.63
2022-08-03T12:58:58.917Z,18.47
2022-08-03T13:01:55.117Z,18.87
2022-08-03T13:04:42.745Z,18.13
2022-08-03T13:07:12.888Z,18.40
2022-08-03T13:09:54.695Z,17.97
2022-08-03T13:12:30.749Z,19.20
2022-08-03T13:15:02.382Z,18.90
2022-08-03T13:17:32.023Z,18.67
2022-08-03T13:20:00.203Z,18.00
2022-08-03T13:22:35.611Z,18.10
2022-08-03T13:25:05.840Z,18.00
2022-08-03T13:28:04.080Z,18.17
2022-08-03T13:30:30.514Z,18.17
2022-08-03T13:33:14.328Z,18.57
2022-08-03T13:35:44.520Z,18.93
2022-08-03T13:38:32.721Z,18.60
2022-08-03T13:41:04.913Z,18.90
2022-08-03T13:43:42.447Z,19.00
2022-08-03T13:46:23.963Z,18.93
2022-08-03T13:48:53.717Z,18.83
2022-08-03T13:51:28.186Z,23.23
2022-08-03T13:53:57.275Z,18.70
2022-08-03T13:56:33.120Z,18.63
2022-08-03T13:59:29.342Z,19.30
2022-08-03T14:02:15.795Z,19.20
2022-08-03T14:04:49.534Z,19.40
2022-08-03T14:07:29.841Z,19.47
2022-08-03T14:10:01.857Z,19.00
2022-08-03T14:12:44.458Z,20.20
2022-08-03T14:15:23.578Z,18.80
2022-08-03T14:17:58.524Z,19.83
2022-08-03T14:20:36.348Z,18.47
2022-08-03T14:23:06.857Z,18.60
2022-08-03T14:26:06.094Z,18.43
2022-08-03T14:28:43.220Z,17.73
2022-08-03T14:32:09.440Z,17.90
2022-08-03T14:34:39.718Z,17.80
2022-08-03T14:38:09.076Z,17.80
2022-08-03T14:41:04.231Z,18.10
2022-08-03T14:44:08.590Z,18.10
2022-08-03T14:46:44.069Z,17.83
2022-08-03T14:50:36.510Z,18.00
2022-08-03T14:52:28.422Z,18.07
2022-08-03T14:55:03.488Z,18.23
2022-08-03T14:57:35.095Z,17.90
2022-08-03T15:00:03.335Z,18.00
2022-08-03T15:02:42.932Z,18.20
2022-08-03T15:05:16.935Z,17.87
2022-08-03T15:07:45.200Z,18.90
2022-08-03T15:10:21.248Z,18.50
2022-08-03T15:12:58.671Z,17.90
2022-08-03T15:15:30.169Z,18.70
2022-08-03T15:18:00.430Z,17.90
2022-08-03T15:20:42.462Z,18.50
2022-08-03T15:23:12.391Z,18.10
2022-08-03T15:26:03.923Z,17.63
2022-08-03T15:28:30.094Z,17.70
2022-08-03T15:30:58.256Z,18.90
2022-08-03T15:33:27.269Z,18.70
2022-08-03T15:35:56.219Z,18.27
2022-08-03T15:38:25.794Z,18.03
2022-08-03T15:40:55.862Z,18.27
2022-08-03T15:43:24.128Z,19.27
2022-08-03T15:48:41.491Z,18.23
2022-08-03T15:51:10.207Z,23.70
2022-08-03T15:53:38.961Z,21.33
2022-08-03T15:56:13.273Z,18.37
2022-08-03T15:59:09.397Z,18.50
2022-08-03T16:01:34.344Z,24.13
2022-08-03T16:04:02.366Z,163.43
2022-08-03T16:06:35.826Z,36.93
2022-08-03T16:09:23.509Z,19.00
2022-08-03T16:11:54.914Z,20.53
2022-08-03T16:14:32.722Z,19.03
2022-08-03T16:17:05.745Z,20.60
2022-08-03T16:19:33.703Z,18.90
2022-08-03T16:22:01.659Z,19.50
2022-08-03T16:24:31.603Z,19.40
2022-08-03T16:27:00.521Z,26.67
2022-08-03T16:29:29.438Z,20.67
2022-08-03T16:31:58.533Z,20.60
2022-08-03T16:34:27.838Z,25.03
2022-08-03T16:36:57.101Z,19.17
2022-08-03T16:39:27.137Z,72.07
2022-08-03T16:42:00.561Z,157.20
2022-08-03T16:44:31.102Z,90.80
2022-08-03T16:46:59.365Z,20.83
2022-08-03T16:49:54.528Z,21.93
2022-08-03T16:52:18.116Z,34.20
2022-08-03T16:54:50.760Z,90.37
2022-08-03T16:57:56.265Z,41.03
2022-08-03T17:00:33.386Z,49.97
2022-08-03T17:03:04.112Z,67.53
2022-08-03T17:05:47.038Z,26.00
2022-08-03T17:08:15.955Z,17.87
2022-08-03T17:10:45.617Z,18.93
2022-08-03T17:13:21.401Z,18.17
2022-08-03T17:16:01.073Z,17.80
2022-08-03T17:18:32.465Z,18.27
2022-08-03T17:21:05.895Z,17.50
2022-08-03T17:23:42.628Z,18.40
2022-08-03T17:26:21.700Z,17.90
2022-08-03T17:28:57.512Z,17.70
2022-08-03T17:31:31.211Z,19.73
2022-08-03T17:34:02.857Z,18.07
2022-08-03T17:37:02.587Z,17.80
2022-08-03T17:39:42.173Z,17.83
2022-08-03T17:42:29.363Z,18.43
2022-08-03T17:45:02.404Z,19.13
2022-08-03T17:47:42.105Z,18.50
2022-08-03T17:50:24.235Z,18.50
2022-08-03T17:53:07.306Z,18.30
2022-08-03T17:55:55.231Z,18.17
2022-08-03T17:58:39.706Z,18.80
2022-08-03T18:02:00.420Z,18.13
2022-08-03T18:04:29.813Z,18.17
2022-08-03T18:07:11.745Z,18.40
2022-08-03T18:10:03.484Z,18.37
2022-08-03T18:12:45.563Z,18.40
2022-08-03T18:15:27.934Z,18.73
2022-08-03T18:18:02.024Z,18.70
2022-08-03T18:23:36.613Z,18.37
2022-08-03T18:26:10.771Z,18.60
2022-08-03T18:28:41.307Z,18.40
2022-08-03T18:31:11.883Z,19.03
2022-08-03T18:34:18.637Z,19.47
2022-08-03T18:36:31.819Z,18.93
2022-08-03T18:39:00.625Z,18.80
2022-08-03T18:41:34.941Z,18.57
2022-08-03T18:44:06.838Z,18.47
2022-08-03T18:46:47.574Z,18.33
2022-08-03T18:49:25.422Z,18.60
2022-08-03T18:52:03.721Z,18.90
2022-08-03T18:54:45.566Z,18.80
2022-08-03T18:57:35.055Z,18.63
2022-08-03T19:00:12.265Z,18.27
2022-08-03T19:02:49.074Z,17.93
2022-08-03T19:05:21.607Z,18.20
2022-08-03T19:07:59.592Z,18.30
2022-08-03T19:10:32.324Z,18.20
2022-08-03T19:13:11.326Z,18.10
2022-08-03T19:15:51.284Z,17.90
2022-08-03T19:18:22.559Z,18.20
2022-08-03T19:20:54.759Z,18.20
2022-08-03T19:23:26.035Z,18.90
2022-08-03T19:26:05.269Z,18.60
2022-08-03T19:28:57.123Z,19.20
2022-08-03T19:31:31.106Z,19.40
2022-08-03T19:34:04.424Z,18.80
2022-08-03T19:36:40.416Z,18.80
2022-08-03T19:39:09.980Z,18.70
2022-08-03T19:41:42.207Z,18.70
2022-08-03T19:44:19.835Z,19.40
2022-08-03T19:47:11.095Z,20.60
2022-08-03T19:49:57.764Z,19.87
2022-08-03T19:52:38.964Z,20.60
2022-08-03T19:55:12.111Z,20.33
2022-08-03T19:57:47.134Z,20.47
2022-08-03T20:00:26.530Z,21.30
2022-08-03T20:03:24.971Z,21.80
2022-08-03T20:06:04.525Z,20.07
2022-08-03T20:09:21.262Z,20.23
2022-08-03T20:11:53.275Z,18.70
2022-08-03T20:14:41.213Z,19.27
2022-08-03T20:17:16.193Z,18.93
2022-08-03T20:20:00.204Z,19.90
2022-08-03T20:22:35.280Z,19.53
2022-08-03T20:25:24.060Z,19.83
2022-08-03T20:28:26.645Z,19.80
2022-08-03T20:31:05.257Z,19.17
2022-08-03T20:33:46.346Z,19.20
2022-08-03T20:36:18.246Z,19.17
2022-08-03T20:38:48.069Z,19.27
2022-08-03T20:41:16.959Z,18.77
2022-08-03T20:43:45.443Z,19.10
2022-08-03T20:46:31.868Z,19.30
2022-08-03T20:49:13.395Z,19.30
2022-08-03T20:51:53.285Z,19.20
2022-08-03T20:54:31.042Z,20.10
2022-08-03T20:57:04.428Z,18.50
2022-08-03T21:02:38.718Z,18.13
2022-08-03T21:05:47.907Z,18.87
2022-08-03T21:08:26.380Z,19.10
2022-08-03T21:11:08.811Z,19.87
2022-08-03T21:13:04.438Z,19.10
2022-08-03T21:13:07.829Z,20.37
2022-08-03T21:13:44.170Z,19.20
2022-08-03T21:16:15.195Z,19.07
2022-08-03T21:18:49.623Z,19.03
2022-08-03T21:21:23.485Z,18.60
2022-08-03T21:23:54.165Z,19.00
2022-08-03T21:26:34.605Z,18.60
2022-08-03T21:29:03.917Z,18.50
2022-08-03T21:31:33.205Z,19.33
2022-08-03T21:34:03.960Z,20.80
2022-08-03T21:36:35.575Z,19.07
2022-08-03T21:39:14.841Z,19.63
2022-08-03T21:41:43.152Z,20.30
2022-08-03T21:44:54.830Z,19.30
2022-08-03T21:47:48.653Z,19.63
2022-08-03T21:50:17.642Z,18.77
2022-08-03T21:56:29.832Z,19.27
2022-08-03T21:59:08.701Z,19.20
2022-08-03T22:01:51.499Z,19.33
2022-08-03T22:04:34.402Z,20.07
2022-08-03T22:07:20.880Z,20.60
2022-08-03T22:09:51.433Z,21.20
2022-08-03T22:12:24.993Z,21.37
2022-08-03T22:15:00.920Z,20.30
2022-08-03T22:17:56.030Z,20.73
2022-08-03T22:20:27.585Z,20.57
2022-08-03T22:23:06.629Z,20.87
2022-08-03T22:25:45.023Z,20.90
2022-08-03T22:28:16.300Z,20.20
2022-08-03T22:30:53.604Z,20.90
2022-08-03T22:33:37.321Z,20.30
2022-08-03T22:36:13.665Z,20.27
2022-08-03T22:38:48.183Z,20.43
2022-08-03T22:41:38.946Z,20.90
2022-08-03T22:44:08.540Z,20.70
2022-08-03T22:46:57.295Z,20.73
2022-08-03T22:49:39.375Z,20.57
2022-08-03T22:52:14.956Z,21.00
2022-08-03T22:54:43.727Z,20.73
2022-08-03T22:57:50.977Z,20.80
2022-08-03T23:00:25.941Z,20.60
2022-08-03T23:02:58.028Z,20.60
2022-08-03T23:06:02.320Z,19.63
2022-08-03T23:08:28.896Z,20.20
2022-08-03T23:11:19.267Z,19.90
2022-08-03T23:14:16.343Z,21.43
2022-08-03T23:16:55.919Z,20.63
2022-08-03T23:19:44.909Z,20.80
2022-08-03T23:22:30.187Z,19.87
2022-08-03T23:25:25.649Z,20.57
2022-08-03T23:28:05.067Z,20.00
2022-08-03T23:30:53.125Z,19.90
2022-08-03T23:34:16.739Z,20.00
2022-08-03T23:36:49.088Z,20.57
2022-08-03T23:39:51.788Z,19.80
2022-08-03T23:42:36.083Z,20.17
2022-08-03T23:45:17.036Z,19.97
2022-08-03T23:47:50.962Z,20.70
2022-08-03T23:50:46.606Z,20.20
2022-08-03T23:53:39.706Z,20.90
2022-08-03T23:56:31.953Z,20.10
2022-08-03T23:59:08.225Z,20.73
